sensor_id;sensor_type;location;lat;lon;timestamp;P1;durP1;ratioP1;P2;durP2;ratioP2
25449;SDS011;13371;52.080;5.624;2023-12-07T00:01:43;14.95;;;9.60;;
25449;SDS011;13371;52.080;5.624;2023-12-07T00:04:09;19.92;;;9.57;;
25449;SDS011;13371;52.080;5.624;2023-12-07T00:06:34;18.58;;;9.60;;
25449;SDS011;13371;52.080;5.624;2023-12-07T00:09:00;16.08;;;8.93;;
25449;SDS011;13371;52.080;5.624;2023-12-07T00:11:26;15.80;;;8.77;;
25449;SDS011;13371;52.080;5.624;2023-12-07T00:13:51;18.63;;;9.32;;
25449;SDS011;13371;52.080;5.624;2023-12-07T00:16:17;15.70;;;9.40;;
25449;SDS011;13371;52.080;5.624;2023-12-07T00:18:43;17.98;;;8.90;;
25449;SDS011;13371;52.080;5.624;2023-12-07T00:21:08;14.68;;;8.80;;
25449;SDS011;13371;52.080;5.624;2023-12-07T00:23:34;18.73;;;9.18;;
25449;SDS011;13371;52.080;5.624;2023-12-07T00:26:00;15.32;;;8.75;;
25449;SDS011;13371;52.080;5.624;2023-12-07T00:28:25;13.40;;;8.77;;
25449;SDS011;13371;52.080;5.624;2023-12-07T00:30:51;16.02;;;9.40;;
25449;SDS011;13371;52.080;5.624;2023-12-07T00:33:17;16.77;;;8.95;;
25449;SDS011;13371;52.080;5.624;2023-12-07T00:35:42;17.77;;;9.77;;
25449;SDS011;13371;52.080;5.624;2023-12-07T00:38:08;16.98;;;9.02;;
25449;SDS011;13371;52.080;5.624;2023-12-07T00:40:34;15.00;;;8.43;;
25449;SDS011;13371;52.080;5.624;2023-12-07T00:43:02;13.73;;;7.93;;
25449;SDS011;13371;52.080;5.624;2023-12-07T00:45:28;15.80;;;8.35;;
25449;SDS011;13371;52.080;5.624;2023-12-07T00:47:54;15.63;;;9.23;;
25449;SDS011;13371;52.080;5.624;2023-12-07T00:50:19;23.05;;;10.52;;
25449;SDS011;13371;52.080;5.624;2023-12-07T00:52:45;20.77;;;9.63;;
25449;SDS011;13371;52.080;5.624;2023-12-07T00:55:10;20.60;;;11.02;;
25449;SDS011;13371;52.080;5.624;2023-12-07T00:57:36;31.20;;;13.68;;
25449;SDS011;13371;52.080;5.624;2023-12-07T01:00:01;21.70;;;11.20;;
25449;SDS011;13371;52.080;5.624;2023-12-07T01:02:28;19.67;;;9.45;;
25449;SDS011;13371;52.080;5.624;2023-12-07T01:04:54;15.98;;;7.75;;
25449;SDS011;13371;52.080;5.624;2023-12-07T01:07:20;15.80;;;9.00;;
25449;SDS011;13371;52.080;5.624;2023-12-07T01:09:46;18.98;;;10.68;;
25449;SDS011;13371;52.080;5.624;2023-12-07T01:12:11;15.65;;;9.90;;
25449;SDS011;13371;52.080;5.624;2023-12-07T01:14:37;21.38;;;9.98;;
25449;SDS011;13371;52.080;5.624;2023-12-07T01:17:03;17.10;;;9.55;;
25449;SDS011;13371;52.080;5.624;2023-12-07T01:19:29;15.68;;;8.63;;
25449;SDS011;13371;52.080;5.624;2023-12-07T01:21:54;16.95;;;8.73;;
25449;SDS011;13371;52.080;5.624;2023-12-07T01:24:20;14.25;;;8.25;;
25449;SDS011;13371;52.080;5.624;2023-12-07T01:26:45;14.50;;;9.00;;
25449;SDS011;13371;52.080;5.624;2023-12-07T01:29:11;13.75;;;8.43;;
25449;SDS011;13371;52.080;5.624;2023-12-07T01:31:38;18.45;;;8.68;;
25449;SDS011;13371;52.080;5.624;2023-12-07T01:34:04;18.83;;;8.40;;
25449;SDS011;13371;52.080;5.624;2023-12-07T01:36:30;15.85;;;7.93;;
25449;SDS011;13371;52.080;5.624;2023-12-07T01:38:55;14.18;;;7.45;;
25449;SDS011;13371;52.080;5.624;2023-12-07T01:41:21;15.38;;;7.07;;
25449;SDS011;13371;52.080;5.624;2023-12-07T01:43:47;16.02;;;7.65;;
25449;SDS011;13371;52.080;5.624;2023-12-07T01:46:13;14.40;;;7.95;;
25449;SDS011;13371;52.080;5.624;2023-12-07T01:48:39;13.15;;;7.53;;
25449;SDS011;13371;52.080;5.624;2023-12-07T01:51:05;15.32;;;7.78;;
25449;SDS011;13371;52.080;5.624;2023-12-07T01:53:32;17.10;;;8.13;;
25449;SDS011;13371;52.080;5.624;2023-12-07T01:55:58;13.45;;;6.95;;
25449;SDS011;13371;52.080;5.624;2023-12-07T01:58:24;16.70;;;7.82;;
25449;SDS011;13371;52.080;5.624;2023-12-07T02:00:50;14.48;;;7.45;;
25449;SDS011;13371;52.080;5.624;2023-12-07T02:03:16;12.35;;;7.15;;
25449;SDS011;13371;52.080;5.624;2023-12-07T02:05:43;13.02;;;8.05;;
25449;SDS011;13371;52.080;5.624;2023-12-07T02:08:14;14.18;;;7.95;;
25449;SDS011;13371;52.080;5.624;2023-12-07T02:10:39;14.80;;;7.13;;
25449;SDS011;13371;52.080;5.624;2023-12-07T02:13:05;16.45;;;7.65;;
25449;SDS011;13371;52.080;5.624;2023-12-07T02:15:31;14.80;;;7.50;;
25449;SDS011;13371;52.080;5.624;2023-12-07T02:18:03;13.48;;;6.78;;
25449;SDS011;13371;52.080;5.624;2023-12-07T02:20:41;14.98;;;7.28;;
25449;SDS011;13371;52.080;5.624;2023-12-07T02:23:13;15.50;;;7.45;;
25449;SDS011;13371;52.080;5.624;2023-12-07T02:28:16;15.57;;;6.90;;
25449;SDS011;13371;52.080;5.624;2023-12-07T02:30:42;10.70;;;7.00;;
25449;SDS011;13371;52.080;5.624;2023-12-07T02:33:07;14.48;;;8.30;;
25449;SDS011;13371;52.080;5.624;2023-12-07T02:35:34;20.20;;;7.15;;
25449;SDS011;13371;52.080;5.624;2023-12-07T02:38:01;12.57;;;6.35;;
25449;SDS011;13371;52.080;5.624;2023-12-07T02:40:28;10.70;;;6.53;;
25449;SDS011;13371;52.080;5.624;2023-12-07T02:42:54;14.43;;;6.55;;
25449;SDS011;13371;52.080;5.624;2023-12-07T02:45:20;13.60;;;7.25;;
25449;SDS011;13371;52.080;5.624;2023-12-07T02:47:46;12.32;;;6.75;;
25449;SDS011;13371;52.080;5.624;2023-12-07T02:50:12;18.02;;;6.72;;
25449;SDS011;13371;52.080;5.624;2023-12-07T02:52:38;14.77;;;7.63;;
25449;SDS011;13371;52.080;5.624;2023-12-07T02:55:04;12.85;;;6.70;;
25449;SDS011;13371;52.080;5.624;2023-12-07T02:57:30;15.98;;;7.18;;
25449;SDS011;13371;52.080;5.624;2023-12-07T02:59:56;13.30;;;6.95;;
25449;SDS011;13371;52.080;5.624;2023-12-07T03:02:22;14.82;;;8.02;;
25449;SDS011;13371;52.080;5.624;2023-12-07T03:04:47;12.60;;;7.25;;
25449;SDS011;13371;52.080;5.624;2023-12-07T03:07:13;13.10;;;6.85;;
25449;SDS011;13371;52.080;5.624;2023-12-07T03:09:38;13.50;;;7.25;;
25449;SDS011;13371;52.080;5.624;2023-12-07T03:12:04;17.80;;;7.60;;
25449;SDS011;13371;52.080;5.624;2023-12-07T03:14:30;14.35;;;7.15;;
25449;SDS011;13371;52.080;5.624;2023-12-07T03:16:55;13.52;;;7.32;;
25449;SDS011;13371;52.080;5.624;2023-12-07T03:19:21;12.80;;;7.38;;
25449;SDS011;13371;52.080;5.624;2023-12-07T03:21:46;14.40;;;7.82;;
25449;SDS011;13371;52.080;5.624;2023-12-07T03:24:12;12.60;;;7.53;;
25449;SDS011;13371;52.080;5.624;2023-12-07T03:26:38;13.05;;;7.53;;
25449;SDS011;13371;52.080;5.624;2023-12-07T03:29:03;15.27;;;7.85;;
25449;SDS011;13371;52.080;5.624;2023-12-07T03:31:29;12.95;;;7.13;;
25449;SDS011;13371;52.080;5.624;2023-12-07T03:33:55;15.00;;;7.57;;
25449;SDS011;13371;52.080;5.624;2023-12-07T03:36:21;13.38;;;7.22;;
25449;SDS011;13371;52.080;5.624;2023-12-07T03:38:47;11.85;;;6.90;;
25449;SDS011;13371;52.080;5.624;2023-12-07T03:41:13;18.50;;;7.40;;
25449;SDS011;13371;52.080;5.624;2023-12-07T03:43:38;12.43;;;7.05;;
25449;SDS011;13371;52.080;5.624;2023-12-07T03:46:04;14.93;;;7.60;;
25449;SDS011;13371;52.080;5.624;2023-12-07T03:48:31;12.82;;;7.38;;
25449;SDS011;13371;52.080;5.624;2023-12-07T03:50:57;17.67;;;8.88;;
25449;SDS011;13371;52.080;5.624;2023-12-07T03:53:23;16.48;;;8.10;;
25449;SDS011;13371;52.080;5.624;2023-12-07T03:55:48;15.55;;;8.32;;
25449;SDS011;13371;52.080;5.624;2023-12-07T03:58:14;13.25;;;7.05;;
25449;SDS011;13371;52.080;5.624;2023-12-07T04:00:39;14.50;;;7.60;;
25449;SDS011;13371;52.080;5.624;2023-12-07T04:03:05;16.85;;;8.98;;
25449;SDS011;13371;52.080;5.624;2023-12-07T04:05:31;13.98;;;8.55;;
25449;SDS011;13371;52.080;5.624;2023-12-07T04:07:57;16.05;;;7.78;;
25449;SDS011;13371;52.080;5.624;2023-12-07T04:10:22;16.77;;;9.45;;
25449;SDS011;13371;52.080;5.624;2023-12-07T04:12:49;16.00;;;8.30;;
25449;SDS011;13371;52.080;5.624;2023-12-07T04:15:14;18.40;;;8.95;;
25449;SDS011;13371;52.080;5.624;2023-12-07T04:17:40;13.43;;;8.27;;
25449;SDS011;13371;52.080;5.624;2023-12-07T04:20:05;15.25;;;8.85;;
25449;SDS011;13371;52.080;5.624;2023-12-07T04:22:32;16.17;;;9.25;;
25449;SDS011;13371;52.080;5.624;2023-12-07T04:24:58;16.65;;;8.35;;
25449;SDS011;13371;52.080;5.624;2023-12-07T04:27:23;20.20;;;9.60;;
25449;SDS011;13371;52.080;5.624;2023-12-07T04:29:49;15.88;;;9.45;;
25449;SDS011;13371;52.080;5.624;2023-12-07T04:32:15;16.65;;;8.85;;
25449;SDS011;13371;52.080;5.624;2023-12-07T04:34:40;19.65;;;10.10;;
25449;SDS011;13371;52.080;5.624;2023-12-07T04:37:06;18.00;;;8.50;;
25449;SDS011;13371;52.080;5.624;2023-12-07T04:39:31;18.90;;;9.98;;
25449;SDS011;13371;52.080;5.624;2023-12-07T04:41:57;21.98;;;11.00;;
25449;SDS011;13371;52.080;5.624;2023-12-07T04:44:22;25.92;;;10.25;;
25449;SDS011;13371;52.080;5.624;2023-12-07T04:46:50;22.10;;;10.38;;
25449;SDS011;13371;52.080;5.624;2023-12-07T04:49:17;23.45;;;10.98;;
25449;SDS011;13371;52.080;5.624;2023-12-07T04:51:42;23.20;;;10.05;;
25449;SDS011;13371;52.080;5.624;2023-12-07T04:54:11;22.27;;;10.60;;
25449;SDS011;13371;52.080;5.624;2023-12-07T04:56:40;30.67;;;9.98;;
25449;SDS011;13371;52.080;5.624;2023-12-07T04:59:06;26.75;;;11.73;;
25449;SDS011;13371;52.080;5.624;2023-12-07T05:01:33;24.95;;;10.73;;
25449;SDS011;13371;52.080;5.624;2023-12-07T05:04:00;32.70;;;10.48;;
25449;SDS011;13371;52.080;5.624;2023-12-07T05:06:27;30.45;;;11.75;;
25449;SDS011;13371;52.080;5.624;2023-12-07T05:08:52;25.92;;;10.57;;
25449;SDS011;13371;52.080;5.624;2023-12-07T05:11:18;23.45;;;11.13;;
25449;SDS011;13371;52.080;5.624;2023-12-07T05:13:44;39.08;;;11.63;;
25449;SDS011;13371;52.080;5.624;2023-12-07T05:16:09;24.52;;;11.27;;
25449;SDS011;13371;52.080;5.624;2023-12-07T05:18:35;44.53;;;11.75;;
25449;SDS011;13371;52.080;5.624;2023-12-07T05:21:01;29.55;;;11.35;;
25449;SDS011;13371;52.080;5.624;2023-12-07T05:23:26;26.25;;;10.80;;
25449;SDS011;13371;52.080;5.624;2023-12-07T05:25:52;43.95;;;11.93;;
25449;SDS011;13371;52.080;5.624;2023-12-07T05:28:19;36.42;;;11.35;;
25449;SDS011;13371;52.080;5.624;2023-12-07T05:30:44;31.00;;;11.02;;
25449;SDS011;13371;52.080;5.624;2023-12-07T05:33:11;32.17;;;12.43;;
25449;SDS011;13371;52.080;5.624;2023-12-07T05:35:36;39.65;;;10.90;;
25449;SDS011;13371;52.080;5.624;2023-12-07T05:38:02;40.08;;;11.70;;
25449;SDS011;13371;52.080;5.624;2023-12-07T05:40:27;38.67;;;11.95;;
25449;SDS011;13371;52.080;5.624;2023-12-07T05:42:53;34.45;;;11.65;;
25449;SDS011;13371;52.080;5.624;2023-12-07T05:45:20;30.23;;;12.23;;
25449;SDS011;13371;52.080;5.624;2023-12-07T05:47:46;25.80;;;11.35;;
25449;SDS011;13371;52.080;5.624;2023-12-07T05:50:11;40.75;;;12.13;;
25449;SDS011;13371;52.080;5.624;2023-12-07T05:52:37;39.28;;;12.05;;
25449;SDS011;13371;52.080;5.624;2023-12-07T05:55:02;43.80;;;12.13;;
25449;SDS011;13371;52.080;5.624;2023-12-07T05:57:29;38.20;;;12.80;;
25449;SDS011;13371;52.080;5.624;2023-12-07T05:59:56;35.42;;;13.20;;
25449;SDS011;13371;52.080;5.624;2023-12-07T06:02:21;39.42;;;13.15;;
25449;SDS011;13371;52.080;5.624;2023-12-07T06:04:47;51.22;;;12.35;;
25449;SDS011;13371;52.080;5.624;2023-12-07T06:07:12;46.20;;;13.27;;
25449;SDS011;13371;52.080;5.624;2023-12-07T06:09:38;45.85;;;11.98;;
25449;SDS011;13371;52.080;5.624;2023-12-07T06:12:03;44.13;;;13.35;;
25449;SDS011;13371;52.080;5.624;2023-12-07T06:14:29;31.98;;;12.02;;
25449;SDS011;13371;52.080;5.624;2023-12-07T06:16:54;48.75;;;12.52;;
25449;SDS011;13371;52.080;5.624;2023-12-07T06:19:20;23.60;;;11.52;;
25449;SDS011;13371;52.080;5.624;2023-12-07T06:21:46;28.15;;;10.90;;
25449;SDS011;13371;52.080;5.624;2023-12-07T06:24:11;31.83;;;12.77;;
25449;SDS011;13371;52.080;5.624;2023-12-07T06:26:39;35.97;;;12.27;;
25449;SDS011;13371;52.080;5.624;2023-12-07T06:29:04;33.75;;;11.65;;
25449;SDS011;13371;52.080;5.624;2023-12-07T06:31:32;34.65;;;11.82;;
25449;SDS011;13371;52.080;5.624;2023-12-07T06:33:58;22.85;;;11.85;;
25449;SDS011;13371;52.080;5.624;2023-12-07T06:36:25;44.08;;;12.35;;
25449;SDS011;13371;52.080;5.624;2023-12-07T06:38:52;63.97;;;12.57;;
25449;SDS011;13371;52.080;5.624;2023-12-07T06:41:19;41.58;;;13.38;;
25449;SDS011;13371;52.080;5.624;2023-12-07T06:43:45;61.05;;;11.98;;
25449;SDS011;13371;52.080;5.624;2023-12-07T06:46:14;39.63;;;11.95;;
25449;SDS011;13371;52.080;5.624;2023-12-07T06:48:41;39.13;;;12.02;;
25449;SDS011;13371;52.080;5.624;2023-12-07T06:51:07;29.52;;;11.55;;
25449;SDS011;13371;52.080;5.624;2023-12-07T06:53:32;34.05;;;11.75;;
25449;SDS011;13371;52.080;5.624;2023-12-07T06:55:58;44.63;;;12.15;;
25449;SDS011;13371;52.080;5.624;2023-12-07T06:58:24;68.60;;;13.90;;
25449;SDS011;13371;52.080;5.624;2023-12-07T07:00:49;40.28;;;12.40;;
25449;SDS011;13371;52.080;5.624;2023-12-07T07:03:15;29.08;;;11.23;;
25449;SDS011;13371;52.080;5.624;2023-12-07T07:05:41;42.03;;;12.52;;
25449;SDS011;13371;52.080;5.624;2023-12-07T07:08:07;24.73;;;12.30;;
25449;SDS011;13371;52.080;5.624;2023-12-07T07:10:33;36.17;;;12.50;;
25449;SDS011;13371;52.080;5.624;2023-12-07T07:13:02;35.88;;;13.40;;
25449;SDS011;13371;52.080;5.624;2023-12-07T07:15:32;33.47;;;13.10;;
25449;SDS011;13371;52.080;5.624;2023-12-07T07:17:58;24.58;;;12.10;;
25449;SDS011;13371;52.080;5.624;2023-12-07T07:20:24;19.77;;;11.27;;
25449;SDS011;13371;52.080;5.624;2023-12-07T07:22:50;39.20;;;11.90;;
25449;SDS011;13371;52.080;5.624;2023-12-07T07:25:16;33.53;;;12.40;;
25449;SDS011;13371;52.080;5.624;2023-12-07T07:27:44;25.05;;;11.48;;
25449;SDS011;13371;52.080;5.624;2023-12-07T07:30:10;40.78;;;13.00;;
25449;SDS011;13371;52.080;5.624;2023-12-07T07:32:36;38.35;;;12.52;;
25449;SDS011;13371;52.080;5.624;2023-12-07T07:35:02;31.40;;;11.40;;
25449;SDS011;13371;52.080;5.624;2023-12-07T07:37:28;26.40;;;11.18;;
25449;SDS011;13371;52.080;5.624;2023-12-07T07:39:53;25.48;;;9.93;;
25449;SDS011;13371;52.080;5.624;2023-12-07T07:42:19;32.22;;;11.73;;
25449;SDS011;13371;52.080;5.624;2023-12-07T07:44:44;23.20;;;10.40;;
25449;SDS011;13371;52.080;5.624;2023-12-07T07:47:10;32.00;;;9.43;;
25449;SDS011;13371;52.080;5.624;2023-12-07T07:49:35;37.05;;;11.70;;
25449;SDS011;13371;52.080;5.624;2023-12-07T07:52:02;41.28;;;12.20;;
25449;SDS011;13371;52.080;5.624;2023-12-07T07:54:28;30.60;;;12.65;;
25449;SDS011;13371;52.080;5.624;2023-12-07T07:56:53;31.60;;;13.13;;
25449;SDS011;13371;52.080;5.624;2023-12-07T07:59:19;38.25;;;13.05;;
25449;SDS011;13371;52.080;5.624;2023-12-07T08:01:45;37.15;;;10.38;;
25449;SDS011;13371;52.080;5.624;2023-12-07T08:04:12;32.90;;;13.20;;
25449;SDS011;13371;52.080;5.624;2023-12-07T08:06:37;37.72;;;13.13;;
25449;SDS011;13371;52.080;5.624;2023-12-07T08:09:03;27.33;;;10.73;;
25449;SDS011;13371;52.080;5.624;2023-12-07T08:11:29;28.23;;;11.98;;
25449;SDS011;13371;52.080;5.624;2023-12-07T08:13:54;35.10;;;12.93;;
25449;SDS011;13371;52.080;5.624;2023-12-07T08:16:20;22.52;;;11.45;;
25449;SDS011;13371;52.080;5.624;2023-12-07T08:18:45;65.72;;;13.82;;
25449;SDS011;13371;52.080;5.624;2023-12-07T08:21:21;34.78;;;12.55;;
25449;SDS011;13371;52.080;5.624;2023-12-07T08:23:47;41.22;;;13.63;;
25449;SDS011;13371;52.080;5.624;2023-12-07T08:26:13;32.40;;;12.77;;
25449;SDS011;13371;52.080;5.624;2023-12-07T08:28:40;30.00;;;12.82;;
25449;SDS011;13371;52.080;5.624;2023-12-07T08:31:06;45.92;;;14.20;;
25449;SDS011;13371;52.080;5.624;2023-12-07T08:33:31;23.73;;;12.35;;
25449;SDS011;13371;52.080;5.624;2023-12-07T08:35:59;36.40;;;10.95;;
25449;SDS011;13371;52.080;5.624;2023-12-07T08:38:25;32.38;;;11.35;;
25449;SDS011;13371;52.080;5.624;2023-12-07T08:40:50;27.00;;;11.55;;
25449;SDS011;13371;52.080;5.624;2023-12-07T08:43:16;42.80;;;13.20;;
25449;SDS011;13371;52.080;5.624;2023-12-07T08:45:44;34.15;;;11.63;;
25449;SDS011;13371;52.080;5.624;2023-12-07T08:48:09;36.53;;;12.80;;
25449;SDS011;13371;52.080;5.624;2023-12-07T08:50:35;31.08;;;13.55;;
25449;SDS011;13371;52.080;5.624;2023-12-07T08:53:00;30.35;;;13.82;;
25449;SDS011;13371;52.080;5.624;2023-12-07T08:55:26;32.92;;;12.60;;
25449;SDS011;13371;52.080;5.624;2023-12-07T08:57:52;33.08;;;13.05;;
25449;SDS011;13371;52.080;5.624;2023-12-07T09:00:19;45.33;;;14.77;;
25449;SDS011;13371;52.080;5.624;2023-12-07T09:02:50;42.63;;;15.13;;
25449;SDS011;13371;52.080;5.624;2023-12-07T09:05:16;36.50;;;14.70;;
25449;SDS011;13371;52.080;5.624;2023-12-07T09:07:42;56.95;;;15.05;;
25449;SDS011;13371;52.080;5.624;2023-12-07T09:10:08;35.17;;;13.10;;
25449;SDS011;13371;52.080;5.624;2023-12-07T09:12:34;35.15;;;13.05;;
25449;SDS011;13371;52.080;5.624;2023-12-07T09:15:01;45.90;;;14.93;;
25449;SDS011;13371;52.080;5.624;2023-12-07T09:17:27;43.90;;;15.65;;
25449;SDS011;13371;52.080;5.624;2023-12-07T09:19:53;37.80;;;15.82;;
25449;SDS011;13371;52.080;5.624;2023-12-07T09:22:19;31.52;;;14.90;;
25449;SDS011;13371;52.080;5.624;2023-12-07T09:24:45;29.75;;;13.02;;
25449;SDS011;13371;52.080;5.624;2023-12-07T09:27:11;44.95;;;14.25;;
25449;SDS011;13371;52.080;5.624;2023-12-07T09:29:38;49.38;;;14.88;;
25449;SDS011;13371;52.080;5.624;2023-12-07T09:32:03;45.05;;;14.55;;
25449;SDS011;13371;52.080;5.624;2023-12-07T09:34:30;35.78;;;14.18;;
25449;SDS011;13371;52.080;5.624;2023-12-07T09:37:08;37.38;;;12.98;;
25449;SDS011;13371;52.080;5.624;2023-12-07T09:39:34;34.97;;;14.00;;
25449;SDS011;13371;52.080;5.624;2023-12-07T09:42:00;46.88;;;14.63;;
25449;SDS011;13371;52.080;5.624;2023-12-07T09:44:26;34.10;;;13.60;;
25449;SDS011;13371;52.080;5.624;2023-12-07T09:46:52;60.75;;;16.42;;
25449;SDS011;13371;52.080;5.624;2023-12-07T09:49:18;41.80;;;14.70;;
25449;SDS011;13371;52.080;5.624;2023-12-07T09:51:44;32.08;;;14.55;;
25449;SDS011;13371;52.080;5.624;2023-12-07T09:54:11;36.33;;;15.55;;
25449;SDS011;13371;52.080;5.624;2023-12-07T09:56:37;28.23;;;13.10;;
25449;SDS011;13371;52.080;5.624;2023-12-07T09:59:03;31.30;;;12.80;;
25449;SDS011;13371;52.080;5.624;2023-12-07T10:01:29;34.92;;;14.48;;
25449;SDS011;13371;52.080;5.624;2023-12-07T10:04:14;30.98;;;13.93;;
25449;SDS011;13371;52.080;5.624;2023-12-07T10:06:51;23.73;;;12.23;;
25449;SDS011;13371;52.080;5.624;2023-12-07T10:09:18;23.92;;;10.60;;
25449;SDS011;13371;52.080;5.624;2023-12-07T10:11:46;28.75;;;12.48;;
25449;SDS011;13371;52.080;5.624;2023-12-07T10:14:12;28.63;;;11.15;;
25449;SDS011;13371;52.080;5.624;2023-12-07T10:16:37;24.80;;;11.25;;
25449;SDS011;13371;52.080;5.624;2023-12-07T10:19:13;24.30;;;11.35;;
25449;SDS011;13371;52.080;5.624;2023-12-07T10:21:42;31.52;;;11.02;;
25449;SDS011;13371;52.080;5.624;2023-12-07T10:24:08;23.63;;;11.10;;
25449;SDS011;13371;52.080;5.624;2023-12-07T10:26:34;26.35;;;10.88;;
25449;SDS011;13371;52.080;5.624;2023-12-07T10:29:01;28.23;;;9.52;;
25449;SDS011;13371;52.080;5.624;2023-12-07T10:31:29;24.67;;;8.75;;
25449;SDS011;13371;52.080;5.624;2023-12-07T10:33:56;19.75;;;8.52;;
25449;SDS011;13371;52.080;5.624;2023-12-07T10:36:21;19.50;;;8.30;;
25449;SDS011;13371;52.080;5.624;2023-12-07T10:38:47;20.67;;;9.27;;
25449;SDS011;13371;52.080;5.624;2023-12-07T10:41:16;20.80;;;8.07;;
25449;SDS011;13371;52.080;5.624;2023-12-07T10:43:43;22.08;;;9.25;;
25449;SDS011;13371;52.080;5.624;2023-12-07T10:46:13;18.75;;;8.10;;
25449;SDS011;13371;52.080;5.624;2023-12-07T10:48:44;19.88;;;8.98;;
25449;SDS011;13371;52.080;5.624;2023-12-07T10:51:12;30.02;;;9.00;;
25449;SDS011;13371;52.080;5.624;2023-12-07T10:53:56;21.05;;;8.02;;
25449;SDS011;13371;52.080;5.624;2023-12-07T10:56:35;19.63;;;8.75;;
25449;SDS011;13371;52.080;5.624;2023-12-07T10:59:05;23.48;;;8.65;;
25449;SDS011;13371;52.080;5.624;2023-12-07T11:01:33;26.25;;;8.77;;
25449;SDS011;13371;52.080;5.624;2023-12-07T11:04:00;27.90;;;9.25;;
25449;SDS011;13371;52.080;5.624;2023-12-07T11:06:26;24.30;;;9.25;;
25449;SDS011;13371;52.080;5.624;2023-12-07T11:08:55;28.38;;;10.30;;
25449;SDS011;13371;52.080;5.624;2023-12-07T11:11:28;20.90;;;10.23;;
25449;SDS011;13371;52.080;5.624;2023-12-07T11:14:08;21.73;;;10.20;;
25449;SDS011;13371;52.080;5.624;2023-12-07T11:16:38;24.75;;;11.10;;
25449;SDS011;13371;52.080;5.624;2023-12-07T11:19:23;27.92;;;10.25;;
25449;SDS011;13371;52.080;5.624;2023-12-07T11:21:54;26.23;;;10.00;;
25449;SDS011;13371;52.080;5.624;2023-12-07T11:24:24;31.83;;;10.55;;
25449;SDS011;13371;52.080;5.624;2023-12-07T11:26:53;27.83;;;9.73;;
25449;SDS011;13371;52.080;5.624;2023-12-07T11:29:28;29.15;;;10.68;;
25449;SDS011;13371;52.080;5.624;2023-12-07T11:32:01;30.08;;;10.45;;
25449;SDS011;13371;52.080;5.624;2023-12-07T11:34:38;31.80;;;11.38;;
25449;SDS011;13371;52.080;5.624;2023-12-07T11:37:08;28.65;;;11.10;;
25449;SDS011;13371;52.080;5.624;2023-12-07T11:39:41;33.38;;;11.82;;
25449;SDS011;13371;52.080;5.624;2023-12-07T11:42:17;31.75;;;12.25;;
25449;SDS011;13371;52.080;5.624;2023-12-07T11:44:45;35.17;;;11.73;;
25449;SDS011;13371;52.080;5.624;2023-12-07T11:47:16;30.65;;;12.00;;
25449;SDS011;13371;52.080;5.624;2023-12-07T11:49:45;31.67;;;12.82;;
25449;SDS011;13371;52.080;5.624;2023-12-07T11:52:15;30.80;;;13.18;;
25449;SDS011;13371;52.080;5.624;2023-12-07T11:54:46;32.63;;;12.45;;
25449;SDS011;13371;52.080;5.624;2023-12-07T11:57:16;36.75;;;14.20;;
25449;SDS011;13371;52.080;5.624;2023-12-07T11:59:45;28.83;;;12.48;;
25449;SDS011;13371;52.080;5.624;2023-12-07T12:02:13;35.15;;;13.20;;
25449;SDS011;13371;52.080;5.624;2023-12-07T12:04:39;32.00;;;13.18;;
25449;SDS011;13371;52.080;5.624;2023-12-07T12:07:05;35.60;;;14.60;;
25449;SDS011;13371;52.080;5.624;2023-12-07T12:09:31;39.45;;;14.70;;
25449;SDS011;13371;52.080;5.624;2023-12-07T12:11:58;33.03;;;14.25;;
25449;SDS011;13371;52.080;5.624;2023-12-07T12:14:28;40.47;;;15.07;;
25449;SDS011;13371;52.080;5.624;2023-12-07T12:16:54;40.85;;;14.98;;
25449;SDS011;13371;52.080;5.624;2023-12-07T12:19:21;37.30;;;15.23;;
25449;SDS011;13371;52.080;5.624;2023-12-07T12:21:47;39.78;;;15.23;;
25449;SDS011;13371;52.080;5.624;2023-12-07T12:24:13;41.25;;;15.02;;
25449;SDS011;13371;52.080;5.624;2023-12-07T12:26:39;38.10;;;15.10;;
25449;SDS011;13371;52.080;5.624;2023-12-07T12:29:06;40.03;;;16.38;;
25449;SDS011;13371;52.080;5.624;2023-12-07T12:31:33;41.28;;;16.17;;
25449;SDS011;13371;52.080;5.624;2023-12-07T12:34:03;37.97;;;16.13;;
25449;SDS011;13371;52.080;5.624;2023-12-07T12:36:32;41.85;;;15.60;;
25449;SDS011;13371;52.080;5.624;2023-12-07T12:38:57;34.92;;;15.88;;
25449;SDS011;13371;52.080;5.624;2023-12-07T12:41:23;40.67;;;14.98;;
25449;SDS011;13371;52.080;5.624;2023-12-07T12:43:49;36.33;;;14.45;;
25449;SDS011;13371;52.080;5.624;2023-12-07T12:46:16;43.53;;;15.35;;
25449;SDS011;13371;52.080;5.624;2023-12-07T12:48:54;37.05;;;15.35;;
25449;SDS011;13371;52.080;5.624;2023-12-07T12:51:25;40.60;;;15.30;;
25449;SDS011;13371;52.080;5.624;2023-12-07T12:53:52;38.10;;;15.70;;
25449;SDS011;13371;52.080;5.624;2023-12-07T12:56:19;55.78;;;24.13;;
25449;SDS011;13371;52.080;5.624;2023-12-07T12:58:49;39.25;;;16.30;;
25449;SDS011;13371;52.080;5.624;2023-12-07T13:01:15;35.13;;;15.35;;
25449;SDS011;13371;52.080;5.624;2023-12-07T13:03:43;39.47;;;16.13;;
25449;SDS011;13371;52.080;5.624;2023-12-07T13:06:10;42.53;;;17.70;;
25449;SDS011;13371;52.080;5.624;2023-12-07T13:08:37;39.75;;;15.82;;
25449;SDS011;13371;52.080;5.624;2023-12-07T13:11:02;45.75;;;17.80;;
25449;SDS011;13371;52.080;5.624;2023-12-07T13:13:28;43.92;;;18.10;;
25449;SDS011;13371;52.080;5.624;2023-12-07T13:15:54;39.08;;;16.90;;
25449;SDS011;13371;52.080;5.624;2023-12-07T13:18:20;39.58;;;15.65;;
25449;SDS011;13371;52.080;5.624;2023-12-07T13:20:45;41.92;;;16.92;;
25449;SDS011;13371;52.080;5.624;2023-12-07T13:23:11;40.55;;;17.42;;
25449;SDS011;13371;52.080;5.624;2023-12-07T13:25:37;38.05;;;15.02;;
25449;SDS011;13371;52.080;5.624;2023-12-07T13:28:02;39.00;;;15.80;;
25449;SDS011;13371;52.080;5.624;2023-12-07T13:30:28;39.50;;;16.85;;
25449;SDS011;13371;52.080;5.624;2023-12-07T13:32:54;42.60;;;17.58;;
25449;SDS011;13371;52.080;5.624;2023-12-07T13:35:20;37.63;;;16.67;;
25449;SDS011;13371;52.080;5.624;2023-12-07T13:37:46;43.45;;;16.80;;
25449;SDS011;13371;52.080;5.624;2023-12-07T13:40:12;42.78;;;18.50;;
25449;SDS011;13371;52.080;5.624;2023-12-07T13:42:40;41.88;;;16.02;;
25449;SDS011;13371;52.080;5.624;2023-12-07T13:45:06;42.15;;;16.00;;
25449;SDS011;13371;52.080;5.624;2023-12-07T13:47:33;47.58;;;18.45;;
25449;SDS011;13371;52.080;5.624;2023-12-07T13:50:02;33.35;;;14.32;;
25449;SDS011;13371;52.080;5.624;2023-12-07T13:52:28;43.38;;;18.23;;
25449;SDS011;13371;52.080;5.624;2023-12-07T13:54:54;44.75;;;16.15;;
25449;SDS011;13371;52.080;5.624;2023-12-07T13:57:21;40.13;;;15.10;;
25449;SDS011;13371;52.080;5.624;2023-12-07T13:59:50;46.85;;;17.08;;
25449;SDS011;13371;52.080;5.624;2023-12-07T14:02:16;56.60;;;19.00;;
25449;SDS011;13371;52.080;5.624;2023-12-07T14:04:43;42.55;;;16.35;;
25449;SDS011;13371;52.080;5.624;2023-12-07T14:09:41;47.90;;;18.05;;
25449;SDS011;13371;52.080;5.624;2023-12-07T14:12:09;46.88;;;16.65;;
25449;SDS011;13371;52.080;5.624;2023-12-07T14:14:37;41.15;;;16.08;;
25449;SDS011;13371;52.080;5.624;2023-12-07T14:17:06;45.50;;;18.63;;
25449;SDS011;13371;52.080;5.624;2023-12-07T14:19:32;32.92;;;15.43;;
25449;SDS011;13371;52.080;5.624;2023-12-07T14:21:58;47.75;;;17.80;;
25449;SDS011;13371;52.080;5.624;2023-12-07T14:24:24;42.45;;;16.73;;
25449;SDS011;13371;52.080;5.624;2023-12-07T14:26:50;41.03;;;17.35;;
25449;SDS011;13371;52.080;5.624;2023-12-07T14:29:16;49.45;;;18.63;;